KPIH/PIH METAR and TAF weather

Enter ICAO airport designator
Station Type Date Time Source
KPIH METAR 2019/02/18 03:53 UTC NOAA

KPIH 180353Z 01006KT 10SM CLR M07/M09 A2991 RMK AO2 SLP164 T10721089


Station Type Date Time Source
KPIH Decoded METAR 2019/02/18 03:53 UTC NOAA

POCATELLO REGIONAL AIRPORT, ID, United States (KPIH) 42-55N 112-36W 1359M
Feb 17, 2019 - 10:53 PM EST / 2019.02.18 0353 UTC
Wind: from the N (010 degrees) at 7 MPH (6 KT):0
Visibility: 10 mile(s):0
Sky conditions: clear
Temperature: 19.0 F (-7.2 C)
Windchill: 10 F (-12 C):1
Dew Point: 16.0 F (-8.9 C)
Relative Humidity: 87%
Pressure (altimeter): 29.91 in. Hg (1012 hPa)
ob: KPIH 180353Z 01006KT 10SM CLR M07/M09 A2991 RMK AO2 SLP164 T10721089
cycle: 4

Station Type Date Time Source
KPIH TAF 2019/02/17 18:40 UTC NOAA

TAF KPIH 171738Z 1718/1818 VRB05KT P6SM VCSH SCT015 BKN030
TEMPO 1718/1721 2SM -SN BR SCT008 BKN012 OVC030
FM172100 04006KT P6SM VCSH BKN035
FM180500 01004KT P6SM VCSH SCT009 SCT030


Example: see airport list